sensor_id;sensor_type;location;lat;lon;timestamp;temperature;humidity
24146;DHT22;12308;50.948;4.706;2023-07-31T00:00:11;17.50;99.90
24146;DHT22;12308;50.948;4.706;2023-07-31T00:02:37;17.60;99.90
24146;DHT22;12308;50.948;4.706;2023-07-31T00:05:03;17.70;99.90
24146;DHT22;12308;50.948;4.706;2023-07-31T00:07:28;17.60;99.90
24146;DHT22;12308;50.948;4.706;2023-07-31T00:09:54;17.50;99.90
24146;DHT22;12308;50.948;4.706;2023-07-31T00:12:22;17.50;99.90
24146;DHT22;12308;50.948;4.706;2023-07-31T00:14:48;17.60;99.90
24146;DHT22;12308;50.948;4.706;2023-07-31T00:17:14;17.70;99.90
24146;DHT22;12308;50.948;4.706;2023-07-31T00:19:39;17.70;99.90
24146;DHT22;12308;50.948;4.706;2023-07-31T00:22:05;17.80;99.90
24146;DHT22;12308;50.948;4.706;2023-07-31T00:24:31;18.00;99.90
24146;DHT22;12308;50.948;4.706;2023-07-31T00:26:56;18.00;99.90
24146;DHT22;12308;50.948;4.706;2023-07-31T00:29:22;18.00;99.90
24146;DHT22;12308;50.948;4.706;2023-07-31T00:31:48;18.00;99.90
24146;DHT22;12308;50.948;4.706;2023-07-31T00:34:13;18.10;99.90
24146;DHT22;12308;50.948;4.706;2023-07-31T00:36:39;18.10;99.90
24146;DHT22;12308;50.948;4.706;2023-07-31T00:39:05;18.00;99.90
24146;DHT22;12308;50.948;4.706;2023-07-31T00:41:30;18.10;99.90
24146;DHT22;12308;50.948;4.706;2023-07-31T00:43:56;18.10;99.90
24146;DHT22;12308;50.948;4.706;2023-07-31T00:46:22;18.20;99.90
24146;DHT22;12308;50.948;4.706;2023-07-31T00:48:48;18.20;99.90
24146;DHT22;12308;50.948;4.706;2023-07-31T00:51:14;18.30;99.90
24146;DHT22;12308;50.948;4.706;2023-07-31T00:53:40;18.30;99.90
24146;DHT22;12308;50.948;4.706;2023-07-31T00:56:06;18.20;99.90
24146;DHT22;12308;50.948;4.706;2023-07-31T00:58:33;18.10;99.90
24146;DHT22;12308;50.948;4.706;2023-07-31T01:00:58;18.20;99.90
24146;DHT22;12308;50.948;4.706;2023-07-31T01:03:24;18.20;99.90
24146;DHT22;12308;50.948;4.706;2023-07-31T01:08:36;18.20;99.90
24146;DHT22;12308;50.948;4.706;2023-07-31T01:11:16;18.20;99.90
24146;DHT22;12308;50.948;4.706;2023-07-31T01:13:44;18.30;99.90
24146;DHT22;12308;50.948;4.706;2023-07-31T01:16:11;18.20;99.90
24146;DHT22;12308;50.948;4.706;2023-07-31T01:18:36;18.30;99.90
24146;DHT22;12308;50.948;4.706;2023-07-31T01:24:18;18.30;99.90
24146;DHT22;12308;50.948;4.706;2023-07-31T01:26:49;18.30;99.90
24146;DHT22;12308;50.948;4.706;2023-07-31T01:29:34;18.50;99.90
24146;DHT22;12308;50.948;4.706;2023-07-31T01:32:03;18.60;99.90
24146;DHT22;12308;50.948;4.706;2023-07-31T01:34:31;18.60;99.90
24146;DHT22;12308;50.948;4.706;2023-07-31T01:36:57;18.50;99.90
24146;DHT22;12308;50.948;4.706;2023-07-31T01:39:26;18.50;99.90
24146;DHT22;12308;50.948;4.706;2023-07-31T01:41:51;18.30;99.90
24146;DHT22;12308;50.948;4.706;2023-07-31T01:44:17;18.40;99.90
24146;DHT22;12308;50.948;4.706;2023-07-31T01:46:43;18.30;99.90
24146;DHT22;12308;50.948;4.706;2023-07-31T01:49:09;18.40;99.90
24146;DHT22;12308;50.948;4.706;2023-07-31T01:51:35;18.30;99.90
24146;DHT22;12308;50.948;4.706;2023-07-31T01:54:01;18.40;99.90
24146;DHT22;12308;50.948;4.706;2023-07-31T01:56:27;18.30;99.90
24146;DHT22;12308;50.948;4.706;2023-07-31T01:58:53;18.40;99.90
24146;DHT22;12308;50.948;4.706;2023-07-31T02:01:18;18.40;99.90
24146;DHT22;12308;50.948;4.706;2023-07-31T02:03:44;18.30;99.90
24146;DHT22;12308;50.948;4.706;2023-07-31T02:06:10;18.30;99.90
24146;DHT22;12308;50.948;4.706;2023-07-31T02:08:35;18.50;99.90
24146;DHT22;12308;50.948;4.706;2023-07-31T02:11:01;18.50;99.90
24146;DHT22;12308;50.948;4.706;2023-07-31T02:13:27;18.30;99.90
24146;DHT22;12308;50.948;4.706;2023-07-31T02:15:53;18.30;99.90
24146;DHT22;12308;50.948;4.706;2023-07-31T02:18:19;18.30;99.90
24146;DHT22;12308;50.948;4.706;2023-07-31T02:20:49;18.30;99.90
24146;DHT22;12308;50.948;4.706;2023-07-31T02:23:15;18.50;99.90
24146;DHT22;12308;50.948;4.706;2023-07-31T02:25:41;18.40;99.90
24146;DHT22;12308;50.948;4.706;2023-07-31T02:28:06;18.50;99.90
24146;DHT22;12308;50.948;4.706;2023-07-31T02:30:32;18.70;99.90
24146;DHT22;12308;50.948;4.706;2023-07-31T02:32:58;18.70;99.90
24146;DHT22;12308;50.948;4.706;2023-07-31T02:35:23;18.50;99.90
24146;DHT22;12308;50.948;4.706;2023-07-31T02:37:49;18.70;99.90
24146;DHT22;12308;50.948;4.706;2023-07-31T02:40:14;18.80;99.90
24146;DHT22;12308;50.948;4.706;2023-07-31T02:42:40;18.80;99.90
24146;DHT22;12308;50.948;4.706;2023-07-31T02:45:06;18.80;99.90
24146;DHT22;12308;50.948;4.706;2023-07-31T02:47:32;18.90;99.90
24146;DHT22;12308;50.948;4.706;2023-07-31T02:49:58;18.80;99.90
24146;DHT22;12308;50.948;4.706;2023-07-31T02:52:24;18.70;99.90
24146;DHT22;12308;50.948;4.706;2023-07-31T02:54:50;18.70;99.90
24146;DHT22;12308;50.948;4.706;2023-07-31T02:57:16;18.80;99.90
24146;DHT22;12308;50.948;4.706;2023-07-31T02:59:42;18.60;99.90
24146;DHT22;12308;50.948;4.706;2023-07-31T03:02:07;18.70;99.90
24146;DHT22;12308;50.948;4.706;2023-07-31T03:04:33;18.50;99.90
24146;DHT22;12308;50.948;4.706;2023-07-31T03:06:59;18.50;99.90
24146;DHT22;12308;50.948;4.706;2023-07-31T03:09:24;18.50;99.90
24146;DHT22;12308;50.948;4.706;2023-07-31T03:11:50;18.50;99.90
24146;DHT22;12308;50.948;4.706;2023-07-31T03:14:16;18.70;99.90
24146;DHT22;12308;50.948;4.706;2023-07-31T03:16:41;18.70;99.90
24146;DHT22;12308;50.948;4.706;2023-07-31T03:19:07;18.50;99.90
24146;DHT22;12308;50.948;4.706;2023-07-31T03:21:33;18.50;99.90
24146;DHT22;12308;50.948;4.706;2023-07-31T03:23:58;18.60;99.90
24146;DHT22;12308;50.948;4.706;2023-07-31T03:26:24;18.60;99.90
24146;DHT22;12308;50.948;4.706;2023-07-31T03:28:50;18.60;99.90
24146;DHT22;12308;50.948;4.706;2023-07-31T03:31:16;18.50;99.90
24146;DHT22;12308;50.948;4.706;2023-07-31T03:33:41;18.50;99.90
24146;DHT22;12308;50.948;4.706;2023-07-31T03:36:07;18.40;99.90
24146;DHT22;12308;50.948;4.706;2023-07-31T03:38:34;18.40;99.90
24146;DHT22;12308;50.948;4.706;2023-07-31T03:40:59;18.40;99.90
24146;DHT22;12308;50.948;4.706;2023-07-31T03:43:25;18.40;99.90
24146;DHT22;12308;50.948;4.706;2023-07-31T03:45:51;18.40;99.90
24146;DHT22;12308;50.948;4.706;2023-07-31T03:48:16;18.40;99.90
24146;DHT22;12308;50.948;4.706;2023-07-31T03:50:42;18.50;99.90
24146;DHT22;12308;50.948;4.706;2023-07-31T03:53:08;18.60;99.90
24146;DHT22;12308;50.948;4.706;2023-07-31T03:55:33;18.60;99.90
24146;DHT22;12308;50.948;4.706;2023-07-31T03:57:59;18.60;99.90
24146;DHT22;12308;50.948;4.706;2023-07-31T04:00:26;18.60;99.90
24146;DHT22;12308;50.948;4.706;2023-07-31T04:02:52;18.40;99.90
24146;DHT22;12308;50.948;4.706;2023-07-31T04:05:18;18.50;99.90
24146;DHT22;12308;50.948;4.706;2023-07-31T04:07:44;18.50;99.90
24146;DHT22;12308;50.948;4.706;2023-07-31T04:10:09;18.40;99.90
24146;DHT22;12308;50.948;4.706;2023-07-31T04:12:35;18.30;99.90
24146;DHT22;12308;50.948;4.706;2023-07-31T04:15:01;18.20;99.90
24146;DHT22;12308;50.948;4.706;2023-07-31T04:17:26;18.10;99.90
24146;DHT22;12308;50.948;4.706;2023-07-31T04:19:52;18.10;99.90
24146;DHT22;12308;50.948;4.706;2023-07-31T04:22:18;18.10;99.90
24146;DHT22;12308;50.948;4.706;2023-07-31T04:24:44;18.10;99.90
24146;DHT22;12308;50.948;4.706;2023-07-31T04:27:09;18.00;99.90
24146;DHT22;12308;50.948;4.706;2023-07-31T04:29:35;18.10;99.90
24146;DHT22;12308;50.948;4.706;2023-07-31T04:32:01;17.90;99.90
24146;DHT22;12308;50.948;4.706;2023-07-31T04:34:26;18.00;99.90
24146;DHT22;12308;50.948;4.706;2023-07-31T04:36:52;18.00;99.90
24146;DHT22;12308;50.948;4.706;2023-07-31T04:39:17;17.80;99.90
24146;DHT22;12308;50.948;4.706;2023-07-31T04:41:43;17.90;99.90
24146;DHT22;12308;50.948;4.706;2023-07-31T04:44:09;18.00;99.90
24146;DHT22;12308;50.948;4.706;2023-07-31T04:46:36;17.90;99.90
24146;DHT22;12308;50.948;4.706;2023-07-31T04:49:03;18.00;99.90
24146;DHT22;12308;50.948;4.706;2023-07-31T04:51:28;18.00;99.90
24146;DHT22;12308;50.948;4.706;2023-07-31T04:53:55;18.00;99.90
24146;DHT22;12308;50.948;4.706;2023-07-31T04:56:21;18.10;99.90
24146;DHT22;12308;50.948;4.706;2023-07-31T04:58:47;18.10;99.90
24146;DHT22;12308;50.948;4.706;2023-07-31T05:01:13;18.20;99.90
24146;DHT22;12308;50.948;4.706;2023-07-31T05:03:38;18.20;99.90
24146;DHT22;12308;50.948;4.706;2023-07-31T05:06:04;18.20;99.90
24146;DHT22;12308;50.948;4.706;2023-07-31T05:08:30;18.10;99.90
24146;DHT22;12308;50.948;4.706;2023-07-31T05:10:55;18.10;99.90
24146;DHT22;12308;50.948;4.706;2023-07-31T05:13:21;18.20;99.90
24146;DHT22;12308;50.948;4.706;2023-07-31T05:15:47;18.00;99.90
24146;DHT22;12308;50.948;4.706;2023-07-31T05:18:14;18.10;99.90
24146;DHT22;12308;50.948;4.706;2023-07-31T05:20:40;18.00;99.90
24146;DHT22;12308;50.948;4.706;2023-07-31T05:23:06;17.90;99.90
24146;DHT22;12308;50.948;4.706;2023-07-31T05:25:32;18.10;99.90
24146;DHT22;12308;50.948;4.706;2023-07-31T05:27:57;18.20;99.90
24146;DHT22;12308;50.948;4.706;2023-07-31T05:30:23;18.10;99.90
24146;DHT22;12308;50.948;4.706;2023-07-31T05:32:48;18.10;99.90
24146;DHT22;12308;50.948;4.706;2023-07-31T05:35:14;18.00;99.90
24146;DHT22;12308;50.948;4.706;2023-07-31T05:37:40;18.00;99.90
24146;DHT22;12308;50.948;4.706;2023-07-31T05:40:06;18.00;99.90
24146;DHT22;12308;50.948;4.706;2023-07-31T05:42:32;18.10;99.90
24146;DHT22;12308;50.948;4.706;2023-07-31T05:44:58;18.10;99.90
24146;DHT22;12308;50.948;4.706;2023-07-31T05:47:23;18.00;99.90
24146;DHT22;12308;50.948;4.706;2023-07-31T05:49:49;18.00;99.90
24146;DHT22;12308;50.948;4.706;2023-07-31T05:52:18;17.80;99.90
24146;DHT22;12308;50.948;4.706;2023-07-31T05:54:44;17.80;99.90
24146;DHT22;12308;50.948;4.706;2023-07-31T05:57:11;17.80;99.90
24146;DHT22;12308;50.948;4.706;2023-07-31T05:59:37;17.80;99.90
24146;DHT22;12308;50.948;4.706;2023-07-31T06:02:02;17.80;99.90
24146;DHT22;12308;50.948;4.706;2023-07-31T06:04:28;17.90;99.90
24146;DHT22;12308;50.948;4.706;2023-07-31T06:06:54;17.80;99.90
24146;DHT22;12308;50.948;4.706;2023-07-31T06:09:20;17.60;99.90
24146;DHT22;12308;50.948;4.706;2023-07-31T06:11:48;17.60;99.90
24146;DHT22;12308;50.948;4.706;2023-07-31T06:14:14;17.80;99.90
24146;DHT22;12308;50.948;4.706;2023-07-31T06:16:40;17.70;99.90
24146;DHT22;12308;50.948;4.706;2023-07-31T06:19:06;17.70;99.90
24146;DHT22;12308;50.948;4.706;2023-07-31T06:21:33;17.90;99.90
24146;DHT22;12308;50.948;4.706;2023-07-31T06:23:59;17.90;99.90
24146;DHT22;12308;50.948;4.706;2023-07-31T06:26:24;17.70;99.90
24146;DHT22;12308;50.948;4.706;2023-07-31T06:28:50;17.80;99.90
24146;DHT22;12308;50.948;4.706;2023-07-31T06:31:16;17.90;99.90
24146;DHT22;12308;50.948;4.706;2023-07-31T06:33:45;17.90;99.90
24146;DHT22;12308;50.948;4.706;2023-07-31T06:36:11;17.90;99.90
24146;DHT22;12308;50.948;4.706;2023-07-31T06:38:37;17.80;99.90
24146;DHT22;12308;50.948;4.706;2023-07-31T06:41:03;17.80;99.90
24146;DHT22;12308;50.948;4.706;2023-07-31T06:43:29;17.80;99.90
24146;DHT22;12308;50.948;4.706;2023-07-31T06:45:55;17.80;99.90
24146;DHT22;12308;50.948;4.706;2023-07-31T06:48:20;17.80;99.90
24146;DHT22;12308;50.948;4.706;2023-07-31T06:50:46;17.80;99.90
24146;DHT22;12308;50.948;4.706;2023-07-31T06:53:12;17.70;99.90
24146;DHT22;12308;50.948;4.706;2023-07-31T06:55:37;17.70;99.90
24146;DHT22;12308;50.948;4.706;2023-07-31T06:58:03;17.90;99.90
24146;DHT22;12308;50.948;4.706;2023-07-31T07:00:29;18.10;99.90
24146;DHT22;12308;50.948;4.706;2023-07-31T07:02:54;18.20;99.90
24146;DHT22;12308;50.948;4.706;2023-07-31T07:05:20;18.30;99.90
24146;DHT22;12308;50.948;4.706;2023-07-31T07:07:46;18.30;99.90
24146;DHT22;12308;50.948;4.706;2023-07-31T07:10:12;18.50;99.90
24146;DHT22;12308;50.948;4.706;2023-07-31T07:12:37;18.60;99.90
24146;DHT22;12308;50.948;4.706;2023-07-31T07:15:03;18.70;99.90
24146;DHT22;12308;50.948;4.706;2023-07-31T07:17:30;18.80;99.90
24146;DHT22;12308;50.948;4.706;2023-07-31T07:19:59;18.80;99.90
24146;DHT22;12308;50.948;4.706;2023-07-31T07:22:26;18.80;99.90
24146;DHT22;12308;50.948;4.706;2023-07-31T07:24:53;18.80;99.90
24146;DHT22;12308;50.948;4.706;2023-07-31T07:27:18;18.80;99.90
24146;DHT22;12308;50.948;4.706;2023-07-31T07:29:46;18.90;99.90
24146;DHT22;12308;50.948;4.706;2023-07-31T07:32:12;19.00;99.90
24146;DHT22;12308;50.948;4.706;2023-07-31T07:34:38;19.10;99.90
24146;DHT22;12308;50.948;4.706;2023-07-31T07:37:03;19.20;99.90
24146;DHT22;12308;50.948;4.706;2023-07-31T07:39:29;19.20;99.90
24146;DHT22;12308;50.948;4.706;2023-07-31T07:41:55;19.30;99.90
24146;DHT22;12308;50.948;4.706;2023-07-31T07:44:21;19.30;99.90
24146;DHT22;12308;50.948;4.706;2023-07-31T07:46:46;19.20;99.90
24146;DHT22;12308;50.948;4.706;2023-07-31T07:49:12;19.20;99.90
24146;DHT22;12308;50.948;4.706;2023-07-31T07:51:38;19.10;99.90
24146;DHT22;12308;50.948;4.706;2023-07-31T07:54:04;19.00;99.90
24146;DHT22;12308;50.948;4.706;2023-07-31T07:56:29;19.10;99.90
24146;DHT22;12308;50.948;4.706;2023-07-31T07:58:55;19.00;99.90
24146;DHT22;12308;50.948;4.706;2023-07-31T08:01:21;18.90;99.90
24146;DHT22;12308;50.948;4.706;2023-07-31T08:03:47;19.10;99.90
24146;DHT22;12308;50.948;4.706;2023-07-31T08:06:14;19.10;99.90
24146;DHT22;12308;50.948;4.706;2023-07-31T08:08:40;19.20;99.90
24146;DHT22;12308;50.948;4.706;2023-07-31T08:11:06;19.20;99.90
24146;DHT22;12308;50.948;4.706;2023-07-31T08:13:32;19.30;99.90
24146;DHT22;12308;50.948;4.706;2023-07-31T08:15:57;19.10;99.90
24146;DHT22;12308;50.948;4.706;2023-07-31T08:18:23;19.20;99.90
24146;DHT22;12308;50.948;4.706;2023-07-31T08:20:48;19.20;99.90
24146;DHT22;12308;50.948;4.706;2023-07-31T08:23:14;19.40;99.90
24146;DHT22;12308;50.948;4.706;2023-07-31T08:25:40;19.60;99.90
24146;DHT22;12308;50.948;4.706;2023-07-31T08:28:06;19.70;99.90
24146;DHT22;12308;50.948;4.706;2023-07-31T08:30:32;19.60;99.90
24146;DHT22;12308;50.948;4.706;2023-07-31T08:33:01;19.70;99.90
24146;DHT22;12308;50.948;4.706;2023-07-31T08:35:28;19.60;99.90
24146;DHT22;12308;50.948;4.706;2023-07-31T08:37:54;19.50;99.90
24146;DHT22;12308;50.948;4.706;2023-07-31T08:40:20;19.70;99.90
24146;DHT22;12308;50.948;4.706;2023-07-31T08:42:49;19.80;99.90
24146;DHT22;12308;50.948;4.706;2023-07-31T08:45:17;19.80;99.90
24146;DHT22;12308;50.948;4.706;2023-07-31T08:47:45;19.80;99.90
24146;DHT22;12308;50.948;4.706;2023-07-31T08:50:13;19.70;99.90
24146;DHT22;12308;50.948;4.706;2023-07-31T08:52:39;19.60;99.90
24146;DHT22;12308;50.948;4.706;2023-07-31T08:55:06;19.70;99.90
24146;DHT22;12308;50.948;4.706;2023-07-31T08:57:32;19.60;99.90
24146;DHT22;12308;50.948;4.706;2023-07-31T08:59:59;19.40;99.90
24146;DHT22;12308;50.948;4.706;2023-07-31T09:02:36;19.40;99.90
24146;DHT22;12308;50.948;4.706;2023-07-31T09:05:05;19.40;99.90
24146;DHT22;12308;50.948;4.706;2023-07-31T09:07:32;19.40;99.90
24146;DHT22;12308;50.948;4.706;2023-07-31T09:09:58;19.30;99.90
24146;DHT22;12308;50.948;4.706;2023-07-31T09:12:25;19.50;99.90
24146;DHT22;12308;50.948;4.706;2023-07-31T09:14:51;19.50;99.90
24146;DHT22;12308;50.948;4.706;2023-07-31T09:17:35;19.60;99.90
24146;DHT22;12308;50.948;4.706;2023-07-31T09:22:40;19.60;99.90
24146;DHT22;12308;50.948;4.706;2023-07-31T09:25:26;19.50;99.90
24146;DHT22;12308;50.948;4.706;2023-07-31T09:27:58;19.50;99.90
24146;DHT22;12308;50.948;4.706;2023-07-31T09:30:24;19.60;99.90
24146;DHT22;12308;50.948;4.706;2023-07-31T09:32:51;19.70;99.90
24146;DHT22;12308;50.948;4.706;2023-07-31T09:38:04;19.30;99.90
24146;DHT22;12308;50.948;4.706;2023-07-31T09:40:33;19.40;99.90
24146;DHT22;12308;50.948;4.706;2023-07-31T09:43:03;19.60;99.90
24146;DHT22;12308;50.948;4.706;2023-07-31T09:45:30;19.80;99.90
24146;DHT22;12308;50.948;4.706;2023-07-31T09:47:56;20.00;99.90
24146;DHT22;12308;50.948;4.706;2023-07-31T09:50:24;20.40;99.90
24146;DHT22;12308;50.948;4.706;2023-07-31T09:52:51;20.70;99.90
24146;DHT22;12308;50.948;4.706;2023-07-31T09:55:18;20.80;99.90
24146;DHT22;12308;50.948;4.706;2023-07-31T09:57:48;21.00;99.90
24146;DHT22;12308;50.948;4.706;2023-07-31T10:00:16;20.60;99.90
24146;DHT22;12308;50.948;4.706;2023-07-31T10:02:45;20.60;99.90
24146;DHT22;12308;50.948;4.706;2023-07-31T10:05:13;20.50;99.90
24146;DHT22;12308;50.948;4.706;2023-07-31T10:07:53;20.60;99.90
24146;DHT22;12308;50.948;4.706;2023-07-31T10:10:20;20.70;99.90
24146;DHT22;12308;50.948;4.706;2023-07-31T10:12:51;21.10;99.90
24146;DHT22;12308;50.948;4.706;2023-07-31T10:15:18;21.10;99.90
24146;DHT22;12308;50.948;4.706;2023-07-31T10:17:47;21.10;99.90
24146;DHT22;12308;50.948;4.706;2023-07-31T10:20:14;21.10;99.90
24146;DHT22;12308;50.948;4.706;2023-07-31T10:22:45;21.10;99.90
24146;DHT22;12308;50.948;4.706;2023-07-31T10:25:12;21.00;99.90
24146;DHT22;12308;50.948;4.706;2023-07-31T10:27:39;21.00;99.90
24146;DHT22;12308;50.948;4.706;2023-07-31T10:30:11;20.90;99.90
24146;DHT22;12308;50.948;4.706;2023-07-31T10:32:40;21.10;99.90
24146;DHT22;12308;50.948;4.706;2023-07-31T10:35:08;21.10;99.90
24146;DHT22;12308;50.948;4.706;2023-07-31T10:37:39;21.50;99.90
24146;DHT22;12308;50.948;4.706;2023-07-31T10:40:11;21.70;99.90
24146;DHT22;12308;50.948;4.706;2023-07-31T10:42:54;21.60;99.90
24146;DHT22;12308;50.948;4.706;2023-07-31T10:45:35;21.10;99.90
24146;DHT22;12308;50.948;4.706;2023-07-31T10:48:05;20.90;99.90
24146;DHT22;12308;50.948;4.706;2023-07-31T10:50:33;20.70;99.90
24146;DHT22;12308;50.948;4.706;2023-07-31T10:53:02;20.70;99.90
24146;DHT22;12308;50.948;4.706;2023-07-31T11:00:33;20.70;99.90
24146;DHT22;12308;50.948;4.706;2023-07-31T11:03:08;20.50;99.90
24146;DHT22;12308;50.948;4.706;2023-07-31T11:10:37;20.70;99.90
24146;DHT22;12308;50.948;4.706;2023-07-31T11:13:04;20.90;99.90
24146;DHT22;12308;50.948;4.706;2023-07-31T11:15:30;21.20;99.90
24146;DHT22;12308;50.948;4.706;2023-07-31T11:17:56;21.60;99.90
24146;DHT22;12308;50.948;4.706;2023-07-31T11:20:27;21.50;99.90
24146;DHT22;12308;50.948;4.706;2023-07-31T11:22:54;21.50;99.90
24146;DHT22;12308;50.948;4.706;2023-07-31T11:25:20;21.60;99.90
24146;DHT22;12308;50.948;4.706;2023-07-31T11:27:47;21.90;99.90
24146;DHT22;12308;50.948;4.706;2023-07-31T11:30:19;22.30;99.90
24146;DHT22;12308;50.948;4.706;2023-07-31T11:32:44;22.40;99.90
24146;DHT22;12308;50.948;4.706;2023-07-31T11:35:13;22.50;99.90
24146;DHT22;12308;50.948;4.706;2023-07-31T11:37:40;22.50;99.90
24146;DHT22;12308;50.948;4.706;2023-07-31T11:40:07;22.40;99.90
24146;DHT22;12308;50.948;4.706;2023-07-31T11:42:37;21.90;99.90
24146;DHT22;12308;50.948;4.706;2023-07-31T11:45:04;21.90;99.90
24146;DHT22;12308;50.948;4.706;2023-07-31T11:47:31;22.00;99.90
24146;DHT22;12308;50.948;4.706;2023-07-31T11:49:57;22.20;99.90
24146;DHT22;12308;50.948;4.706;2023-07-31T11:52:23;22.20;99.90
24146;DHT22;12308;50.948;4.706;2023-07-31T11:54:50;22.20;99.90
24146;DHT22;12308;50.948;4.706;2023-07-31T11:57:16;22.10;99.90
24146;DHT22;12308;50.948;4.706;2023-07-31T11:59:43;21.80;99.90
24146;DHT22;12308;50.948;4.706;2023-07-31T12:02:09;21.70;99.90
24146;DHT22;12308;50.948;4.706;2023-07-31T12:04:35;21.70;99.90
24146;DHT22;12308;50.948;4.706;2023-07-31T12:07:01;21.60;99.90
24146;DHT22;12308;50.948;4.706;2023-07-31T12:09:27;21.50;99.90
24146;DHT22;12308;50.948;4.706;2023-07-31T12:11:53;21.60;99.90
24146;DHT22;12308;50.948;4.706;2023-07-31T12:14:24;21.70;99.90
24146;DHT22;12308;50.948;4.706;2023-07-31T12:17:05;21.90;99.90
24146;DHT22;12308;50.948;4.706;2023-07-31T12:19:32;22.10;99.90
24146;DHT22;12308;50.948;4.706;2023-07-31T12:22:02;22.40;99.90
24146;DHT22;12308;50.948;4.706;2023-07-31T12:24:28;22.40;99.90
24146;DHT22;12308;50.948;4.706;2023-07-31T12:26:54;22.30;99.90
24146;DHT22;12308;50.948;4.706;2023-07-31T12:29:20;22.10;99.90
24146;DHT22;12308;50.948;4.706;2023-07-31T12:31:46;22.10;99.90
24146;DHT22;12308;50.948;4.706;2023-07-31T12:34:19;22.10;99.90
24146;DHT22;12308;50.948;4.706;2023-07-31T12:36:46;22.00;99.90
24146;DHT22;12308;50.948;4.706;2023-07-31T12:39:14;22.00;99.90
24146;DHT22;12308;50.948;4.706;2023-07-31T12:41:40;21.90;99.90
24146;DHT22;12308;50.948;4.706;2023-07-31T12:44:06;21.80;99.90
24146;DHT22;12308;50.948;4.706;2023-07-31T12:46:32;21.90;99.90
24146;DHT22;12308;50.948;4.706;2023-07-31T12:48:57;22.00;99.90
24146;DHT22;12308;50.948;4.706;2023-07-31T12:51:23;22.20;99.90
24146;DHT22;12308;50.948;4.706;2023-07-31T12:53:49;22.30;99.90
24146;DHT22;12308;50.948;4.706;2023-07-31T12:56:14;22.40;99.90
24146;DHT22;12308;50.948;4.706;2023-07-31T12:58:40;22.60;99.90
24146;DHT22;12308;50.948;4.706;2023-07-31T13:01:05;22.40;99.90
24146;DHT22;12308;50.948;4.706;2023-07-31T13:03:32;22.10;99.90
24146;DHT22;12308;50.948;4.706;2023-07-31T13:05:57;21.90;99.90
24146;DHT22;12308;50.948;4.706;2023-07-31T13:08:23;21.80;99.90
24146;DHT22;12308;50.948;4.706;2023-07-31T13:10:49;21.90;99.90
24146;DHT22;12308;50.948;4.706;2023-07-31T13:13:15;21.90;99.90
24146;DHT22;12308;50.948;4.706;2023-07-31T13:15:41;21.80;99.90
24146;DHT22;12308;50.948;4.706;2023-07-31T13:18:06;21.70;99.90
24146;DHT22;12308;50.948;4.706;2023-07-31T13:20:32;21.60;99.90
24146;DHT22;12308;50.948;4.706;2023-07-31T13:22:57;21.50;99.90
24146;DHT22;12308;50.948;4.706;2023-07-31T13:25:23;21.40;99.90
24146;DHT22;12308;50.948;4.706;2023-07-31T13:27:49;21.30;99.90
24146;DHT22;12308;50.948;4.706;2023-07-31T13:30:14;21.20;99.90
24146;DHT22;12308;50.948;4.706;2023-07-31T13:32:40;21.00;99.90
24146;DHT22;12308;50.948;4.706;2023-07-31T13:35:06;20.90;99.90
24146;DHT22;12308;50.948;4.706;2023-07-31T13:37:32;20.90;99.90
24146;DHT22;12308;50.948;4.706;2023-07-31T13:39:58;20.90;99.90
24146;DHT22;12308;50.948;4.706;2023-07-31T13:42:24;21.00;99.90
24146;DHT22;12308;50.948;4.706;2023-07-31T13:44:49;20.90;99.90
24146;DHT22;12308;50.948;4.706;2023-07-31T13:47:15;20.80;99.90
24146;DHT22;12308;50.948;4.706;2023-07-31T13:49:41;20.60;99.90
24146;DHT22;12308;50.948;4.706;2023-07-31T13:52:08;20.40;99.90
24146;DHT22;12308;50.948;4.706;2023-07-31T13:54:34;20.20;99.90
24146;DHT22;12308;50.948;4.706;2023-07-31T13:57:00;20.20;99.90
24146;DHT22;12308;50.948;4.706;2023-07-31T13:59:26;20.30;99.90
24146;DHT22;12308;50.948;4.706;2023-07-31T14:01:52;20.10;99.90
24146;DHT22;12308;50.948;4.706;2023-07-31T14:04:17;20.10;99.90
24146;DHT22;12308;50.948;4.706;2023-07-31T14:06:43;20.00;99.90
24146;DHT22;12308;50.948;4.706;2023-07-31T14:09:09;19.90;99.90
24146;DHT22;12308;50.948;4.706;2023-07-31T14:11:35;19.80;99.90
24146;DHT22;12308;50.948;4.706;2023-07-31T14:14:01;19.90;99.90
24146;DHT22;12308;50.948;4.706;2023-07-31T14:16:30;19.90;99.90
24146;DHT22;12308;50.948;4.706;2023-07-31T14:18:55;20.00;99.90
24146;DHT22;12308;50.948;4.706;2023-07-31T14:21:21;20.10;99.90
24146;DHT22;12308;50.948;4.706;2023-07-31T14:23:47;20.00;99.90
24146;DHT22;12308;50.948;4.706;2023-07-31T14:26:12;19.90;99.90
24146;DHT22;12308;50.948;4.706;2023-07-31T14:28:38;20.00;99.90
24146;DHT22;12308;50.948;4.706;2023-07-31T14:31:04;19.90;99.90
24146;DHT22;12308;50.948;4.706;2023-07-31T14:33:30;19.90;99.90
24146;DHT22;12308;50.948;4.706;2023-07-31T14:35:56;19.90;99.90
24146;DHT22;12308;50.948;4.706;2023-07-31T14:38:21;19.90;99.90
24146;DHT22;12308;50.948;4.706;2023-07-31T14:40:47;19.80;99.90
24146;DHT22;12308;50.948;4.706;2023-07-31T14:43:13;19.90;99.90
24146;DHT22;12308;50.948;4.706;2023-07-31T14:45:38;20.00;99.90
24146;DHT22;12308;50.948;4.706;2023-07-31T14:48:04;20.00;99.90
24146;DHT22;12308;50.948;4.706;2023-07-31T14:50:30;20.10;99.90
24146;DHT22;12308;50.948;4.706;2023-07-31T14:52:55;20.00;99.90
24146;DHT22;12308;50.948;4.706;2023-07-31T14:55:21;20.00;99.90
24146;DHT22;12308;50.948;4.706;2023-07-31T14:57:47;20.00;99.90
24146;DHT22;12308;50.948;4.706;2023-07-31T15:00:13;19.90;99.90
24146;DHT22;12308;50.948;4.706;2023-07-31T15:02:39;19.80;99.90
24146;DHT22;12308;50.948;4.706;2023-07-31T15:05:06;19.90;99.90
24146;DHT22;12308;50.948;4.706;2023-07-31T15:07:35;19.80;99.90
24146;DHT22;12308;50.948;4.706;2023-07-31T15:10:04;19.70;99.90
24146;DHT22;12308;50.948;4.706;2023-07-31T15:12:31;19.60;99.90
24146;DHT22;12308;50.948;4.706;2023-07-31T15:14:57;19.70;99.90
24146;DHT22;12308;50.948;4.706;2023-07-31T15:17:22;19.70;99.90
24146;DHT22;12308;50.948;4.706;2023-07-31T15:19:48;19.70;99.90
24146;DHT22;12308;50.948;4.706;2023-07-31T15:22:14;19.70;99.90
24146;DHT22;12308;50.948;4.706;2023-07-31T15:24:39;19.60;99.90
24146;DHT22;12308;50.948;4.706;2023-07-31T15:27:05;19.60;99.90
24146;DHT22;12308;50.948;4.706;2023-07-31T15:29:31;19.60;99.90
24146;DHT22;12308;50.948;4.706;2023-07-31T15:31:58;19.50;99.90
24146;DHT22;12308;50.948;4.706;2023-07-31T15:34:24;19.60;99.90
24146;DHT22;12308;50.948;4.706;2023-07-31T15:36:50;19.60;99.90
24146;DHT22;12308;50.948;4.706;2023-07-31T15:39:15;19.50;99.90
24146;DHT22;12308;50.948;4.706;2023-07-31T15:41:41;19.50;99.90
24146;DHT22;12308;50.948;4.706;2023-07-31T15:44:07;19.60;99.90
24146;DHT22;12308;50.948;4.706;2023-07-31T15:46:33;19.60;99.90